METAR historie Texel International Airport (EHTX)

25 september 2022

Tijd Code Weer Temp. Zicht Plafond Wind METAR/SPECI
12:25
V
14 °C 10 km+ 6.500 ft 020° 020° 5 kt METAR EHKD 251025Z AUTO 02005KT 340V050 9999 FEW015CB SCT058 BKN065 14/10 Q1016 BLU
11:59
V
13 °C 10 km+ 5.800 ft 020° 020° 7 kt METAR EHKD 250959Z AUTO 02007KT 340V060 9999 -RA FEW015CB SCT046 OVC058 13/10 Q1016 BLU
11:55
V
13 °C 10 km+ 4.900 ft 020° 020° 9 kt METAR EHKD 250955Z AUTO 02009KT 330V050 9999 -RA FEW015CB BKN049 OVC053 13/10 Q1016 BLU TEMPO SCT022CB SCT025
11:43
V
13 °C 10 km+ 3.400 ft 360° 360° 9 kt METAR EHKD 250943Z AUTO 36009KT 290V050 9999 -RA FEW016CB SCT025 BKN034 13/09 Q1016 BLU TEMPO SCT022CB SCT025
11:36
M
14 °C 10 km+ 2.400 ft 340° 340° 9 kt METAR EHKD 250936Z AUTO 34009KT 290V030 9999 FEW017 FEW019CB BKN024 BKN027 14/09 Q1016 WHT TEMPO SCT022CB SCT025
11:32
M
14 °C 10 km+ 2.900 ft 340° 340° 8 kt METAR EHKD 250932Z AUTO 34008KT 290V030 9999 FEW019CB SCT024 BKN029 BKN036 14/09 Q1016 WHT TEMPO SCT022CB SCT025
11:25
M
15 °C 10 km+ 2.800 ft 330° 330° 6 kt METAR EHKD 250925Z AUTO 33006KT 280V040 9999 FEW023CB BKN028 BKN032 OVC038 15/09 Q1015 BLU TEMPO SCT022CB SCT025
10:55
M
16 °C 10 km+ 2.800 ft 360° 360° 5 kt METAR EHKD 250855Z AUTO 36005KT 300V050 9999 BKN028 BKN031 OVC036 16/09 Q1015 BLU TEMPO SCT022CB SCT025
10:25
V
15 °C 10 km+ - 330° 330° 4 kt METAR EHKD 250825Z AUTO 33004KT 270V010 9999 NCD 15/10 Q1015 BLU TEMPO SCT022CB SCT025
09:55
V
14 °C 10 km+ - 340° 340° 3 kt METAR EHKD 250755Z AUTO 34003KT 290V020 9999 NCD 14/10 Q1015 BLU TEMPO SCT022CB SCT025
09:25
V
13 °C 10 km+ 6.400 ft 280° 280° 2 kt METAR EHKD 250725Z AUTO 28002KT 9999 BKN064 13/10 Q1015 BLU TEMPO SCT022CB SCT025
08:55
V
11 °C 10 km+ 9.000 ft 260° 260° 1 kt METAR EHKD 250655Z AUTO 26001KT 9999 OVC090 11/10 Q1015 BLU TEMPO SCT022CB SCT025
08:25
V
11 °C 10 km+ 8.800 ft Var Var 2 kt METAR EHKD 250625Z AUTO VRB02KT 9999 BKN088 11/09 Q1016 BLU TEMPO SCT022CB SCT025
07:55
V
11 °C 10 km+ - 360° 360° 3 kt METAR EHKD 250555Z AUTO 36003KT 330V050 9999 FEW015CB 11/10 Q1015 BLU TEMPO SCT022CB SCT025
07:41
V
11 °C 10 km+ - 350° 350° 3 kt METAR EHKD 250541Z AUTO 35003KT 330V040 9999 FEW015CB SCT040 11/10 Q1015 BLU TEMPO SCT022CB SCT025
07:27
V
11 °C 9 km 4.000 ft 330° 330° 4 kt METAR EHKD 250527Z AUTO 33004KT 300V020 9000 -SHRA FEW015CB SCT034 BKN040 11/10 Q1016 BLU TEMPO SCT022CB SCT025
07:25
V
11 °C 10 km+ 3.400 ft 320° 320° 4 kt METAR EHKD 250525Z AUTO 32004KT 280V020 9999 -RA FEW015CB SCT023 BKN034 11/10 Q1016 RERA WHT TEMPO SCT022CB SCT025
07:10
M
11 °C 10 km+ 2.900 ft Var Var 2 kt METAR EHKD 250510Z AUTO VRB02KT 9999 FEW005 FEW015CB SCT025 BKN029 11/10 Q1015 BLU TEMPO SCT022CB SCT025
07:09
V
11 °C 10 km+ 3.000 ft Var Var 2 kt METAR EHKD 250509Z AUTO VRB02KT 9999 -RA FEW003 FEW015CB SCT025 BKN030 11/10 Q1015 BLU TEMPO SCT022CB SCT025
07:01
I
11 °C 2,9 km 3.600 ft 350° 350° 4 kt METAR EHKD 250501Z AUTO 35004KT 300V060 2900 R21/P3000D +SHRA FEW003 FEW015CB SCT030 BKN036 11/10 Q1015 YLO TEMPO SCT022CB SCT025
06:55
V
11 °C 10 km+ 4.500 ft 330° 330° 4 kt METAR EHKD 250455Z AUTO 33004KT 310V010 9999 +DZ FEW015CB SCT026 BKN045 11/09 Q1015 BLU TEMPO SCT022CB SCT025
06:40
V
11 °C 10 km+ 6.100 ft 020° 020° 3 kt METAR EHKD 250440Z AUTO 02003KT 350V050 9999 -RA FEW015CB SCT046 BKN061 11/08 Q1015 BLU
06:25
M
12 °C 6 km 5.000 ft 350° 350° 6 kt METAR EHKD 250425Z AUTO 35006KT 300V040 6000 +SHRA +DZ FEW015CB SCT044 BKN050 12/08 Q1016 WHT
05:55
V
12 °C 10 km+ - 340° 340° 4 kt METAR EHKD 250355Z AUTO 34004KT 290V030 9999 FEW015CB SCT079 12/09 Q1016 BLU
05:25
V
10 °C 10 km+ - 020° 020° 3 kt METAR EHKD 250325Z AUTO 02003KT 9999 FEW015CB 10/09 Q1016 BLU
04:55
V
11 °C 10 km+ - 360° 360° 3 kt METAR EHKD 250255Z AUTO 36003KT 330V030 9999 NCD 11/09 Q1016 BLU
04:25
V
10 °C 10 km+ - 010° 010° 4 kt METAR EHKD 250225Z AUTO 01004KT 9999 FEW030 10/08 Q1016 BLU
03:55
V
11 °C 10 km+ - 360° 360° 3 kt METAR EHKD 250155Z AUTO 36003KT 330V040 9999 NCD 11/08 Q1016 BLU
03:25
V
11 °C 10 km+ - 020° 020° 5 kt METAR EHKD 250125Z AUTO 02005KT 350V050 9999 FEW015CB 11/09 Q1016 BLU
02:55
V
12 °C 10 km+ - 010° 010° 8 kt METAR EHKD 250055Z AUTO 01008KT 340V060 9999 FEW015CB SCT031 12/09 Q1016 BLU
02:25
V
12 °C 10 km+ - 320° 320° 3 kt METAR EHKD 250025Z AUTO 32003KT 9999 FEW015CB 12/09 Q1016 REDZ BLU
01:55
V
13 °C 10 km+ 5.300 ft 350° 350° 4 kt METAR EHKD 242355Z AUTO 35004KT 310V030 9999 DZ FEW031 SCT043 BKN053 13/09 Q1016 BLU
01:25
V
12 °C 10 km+ 6.900 ft 360° 360° 4 kt METAR EHKD 242325Z AUTO 36004KT 310V040 9999 BKN069 OVC074 12/09 Q1016 BLU
00:55
V
12 °C 10 km+ - 350° 350° 4 kt METAR EHKD 242255Z AUTO 35004KT 320V030 9999 NCD 12/09 Q1016 BLU
00:25
V
13 °C 10 km+ - 360° 360° 5 kt METAR EHKD 242225Z AUTO 36005KT 310V040 9999 NCD 13/09 Q1016 BLU

24 september 2022

Tijd Code Weer Temp. Zicht Plafond Wind METAR/SPECI
23:55
V
13 °C 10 km+ - 360° 360° 5 kt METAR EHKD 242155Z AUTO 36005KT 300V050 9999 FEW029 SCT069 13/09 Q1016 BLU
23:25
V
13 °C 10 km+ - 360° 360° 5 kt METAR EHKD 242125Z AUTO 36005KT 300V050 9999 NCD 13/09 Q1016 BLU
22:55
V
13 °C 10 km+ - 360° 360° 5 kt METAR EHKD 242055Z AUTO 36005KT 320V050 9999 NCD 13/09 Q1016 BLU
22:25
V
13 °C 10 km+ - 010° 010° 6 kt METAR EHKD 242025Z AUTO 01006KT 330V050 9999 FEW025 13/09 Q1016 BLU
21:55
V
14 °C 10 km+ - 020° 020° 7 kt METAR EHKD 241955Z AUTO 02007KT 340V050 9999 NCD 14/09 Q1016 BLU
21:25
V
14 °C 10 km+ - 020° 020° 8 kt METAR EHKD 241925Z AUTO 02008KT 330V050 9999 NCD 14/09 Q1016 BLU
20:55
V
14 °C 10 km+ - 010° 010° 6 kt METAR EHKD 241855Z AUTO 01006KT 340V050 9999 SCT074 14/09 Q1016 BLU
20:25
V
14 °C 10 km+ - 010° 010° 5 kt METAR EHKD 241825Z AUTO 01005KT 340V060 9999 NCD 14/09 Q1015 BLU
19:55
V
14 °C 10 km+ - 010° 010° 6 kt METAR EHKD 241755Z AUTO 01006KT 340V050 9999 FEW042 14/09 Q1015 BLU
19:35
V
14 °C 10 km+ - 010° 010° 6 kt METAR EHKD 241735Z AUTO 01006KT 340V050 9999 NCD 14/09 Q1015 BLU
19:25
V
14 °C 10 km+ - 020° 020° 7 kt METAR EHKD 241725Z AUTO 02007KT 340V050 9999 NCD 14/09 Q1015 BLU NOSIG
18:55
V
15 °C 10 km+ - 020° 020° 8 kt METAR EHKD 241655Z AUTO 02008KT 330V070 9999 FEW027 15/09 Q1015 BLU NOSIG
18:25
V
15 °C 10 km+ 3.100 ft 030° 030° 11 kt METAR EHKD 241625Z AUTO 03011KT 350V060 9999 SCT027 BKN031 BKN037 15/10 Q1015 BLU NOSIG
17:55
V
16 °C 10 km+ 6.400 ft 020° 020° 10 kt METAR EHKD 241555Z AUTO 02010KT 340V060 9999 FEW026 BKN064 16/10 Q1014 BLU NOSIG
17:25
V
15 °C 10 km+ - 030° 030° 10 kt METAR EHKD 241525Z AUTO 03010KT 350V070 9999 FEW031 SCT053 15/10 Q1014 BLU NOSIG
16:55
V
16 °C 10 km+ 32.000 ft 030° 030° 12 kt METAR EHKD 241455Z AUTO 03012KT 360V060 9999 FEW026 SCT033 BKN320 16/10 Q1014 BLU NOSIG
16:31
M
16 °C 10 km+ 2.800 ft 030° 030° 12 kt METAR EHKD 241431Z AUTO 03012KT 350V080 9999 SCT024 BKN028 BKN032 16/10 Q1014 WHT NOSIG
16:25
V
16 °C 10 km+ 3.000 ft 030° 030° 9 kt METAR EHKD 241425Z AUTO 03009KT 350V060 9999 SCT026 BKN030 BKN034 16/10 Q1014 BLU NOSIG
15:55
V
17 °C 10 km+ - 030° 030° 12 kt METAR EHKD 241355Z AUTO 03012KT 360V080 9999 FEW110 17/10 Q1014 BLU NOSIG
15:25
V
17 °C 10 km+ - 030° 030° 12 kt METAR EHKD 241325Z AUTO 03012KT 360V090 9999 FEW029 17/10 Q1014 BLU NOSIG
14:55
V
17 °C 10 km+ 32.000 ft 030° 030° 12 kt METAR EHKD 241255Z AUTO 03012KT 350V070 9999 FEW051 OVC320 17/11 Q1014 BLU NOSIG
14:25
V
16 °C 10 km+ 3.700 ft 030° 030° 11 kt METAR EHKD 241225Z AUTO 03011KT 350V070 9999 SCT032 BKN037 OVC047 16/10 Q1014 BLU
13:55
V
16 °C 10 km+ 10.000 ft 040° 040° 12 kt METAR EHKD 241155Z AUTO 04012KT 360V080 9999 FEW032 OVC100 16/10 Q1014 BLU
13:25
V
17 °C 10 km+ 32.000 ft 030° 030° 11 kt METAR EHKD 241125Z AUTO 03011KT 360V070 9999 SCT110 BKN320 17/11 Q1014 BLU
12:55
V
17 °C 10 km+ 11.000 ft 030° 030° 12 kt METAR EHKD 241055Z AUTO 03012KT 360V060 9999 OVC110 17/10 Q1014 BLU
12:25
V
17 °C 10 km+ - 030° 030° 13 kt METAR EHKD 241025Z AUTO 03013KT 360V060 9999 NCD 17/11 Q1014 BLU
12:07
V
16 °C 10 km+ - 030° 030° 12 kt METAR EHKD 241007Z AUTO 03012KT 360V070 9999 SCT320 16/10 Q1013 BLU
11:55
V
16 °C 10 km+ 12.000 ft 030° 030° 13 kt METAR EHKD 240955Z AUTO 03013KT 350V060 9999 BKN120 BKN310 16/11 Q1013 BLU NOSIG
11:25
V
16 °C 10 km+ 32.000 ft 030° 030° 15 kt METAR EHKD 240925Z AUTO 03015KT 350V070 9999 BKN320 16/10 Q1013 BLU NOSIG
10:55
V
15 °C 10 km+ 8.000 ft 020° 020° 13 kt METAR EHKD 240855Z AUTO 02013KT 350V060 9999 FEW024 BKN080 15/10 Q1013 BLU NOSIG
10:25
V
15 °C 10 km+ 12.000 ft 020° 020° 9 kt METAR EHKD 240825Z AUTO 02009KT 340V060 9999 FEW083 BKN120 BKN300 15/10 Q1013 BLU NOSIG
09:55
V
15 °C 10 km+ 7.900 ft 020° 020° 12 kt METAR EHKD 240755Z AUTO 02012KT 340V060 9999 OVC079 15/10 Q1013 BLU NOSIG
09:38
V
15 °C 10 km+ 7.800 ft 020° 020° 11 kt METAR EHKD 240738Z AUTO 02011KT 340V060 9999 FEW022 SCT027 BKN078 15/10 Q1012 BLU NOSIG
09:25
V
15 °C 10 km+ 11.000 ft 020° 020° 11 kt METAR EHKD 240725Z AUTO 02011KT 340V050 9999 SCT021 SCT079 OVC110 15/10 Q1012 WHT NOSIG
08:55
V
15 °C 10 km+ 7.800 ft 020° 020° 11 kt METAR EHKD 240655Z AUTO 02011KT 340V060 9999 SCT022 BKN078 OVC110 15/11 Q1012 WHT NOSIG
08:37
V
15 °C 10 km+ 7.600 ft 030° 030° 10 kt METAR EHKD 240637Z AUTO 03010KT 360V060 9999 FEW019 SCT033 OVC076 15/11 Q1012 BLU NOSIG
08:25
M
15 °C 10 km+ 2.300 ft 030° 030° 13 kt METAR EHKD 240625Z AUTO 03013KT 350V060 9999 FEW020 BKN023 OVC073 15/11 Q1012 WHT NOSIG
08:07
M
14 °C 10 km+ 2.400 ft 030° 030° 12 kt METAR EHKD 240607Z AUTO 03012KT 360V070 9999 SCT020 BKN024 BKN032 14/11 Q1012 WHT NOSIG
07:55
V
15 °C 10 km+ 3.000 ft 030° 030° 13 kt METAR EHKD 240555Z AUTO 03013KT 360V060 9999 SCT020 BKN030 OVC069 15/10 Q1012 WHT NOSIG
07:25
V
15 °C 10 km+ 6.600 ft 030° 030° 11 kt METAR EHKD 240525Z AUTO 03011KT 360V070 9999 SCT019 OVC066 15/11 Q1011 WHT NOSIG
07:16
V
14 °C 10 km+ 3.300 ft 030° 030° 11 kt METAR EHKD 240516Z AUTO 03011KT 360V060 9999 SCT020 BKN033 OVC065 14/11 Q1011 WHT NOSIG
06:55
V
14 °C 10 km+ 9.600 ft 030° 030° 12 kt METAR EHKD 240455Z AUTO 03012KT 360V070 9999 SCT065 SCT071 BKN096 14/11 Q1011 BLU NOSIG
06:27
V
14 °C 10 km+ 7.900 ft 030° 030° 12 kt METAR EHKD 240427Z AUTO 03012KT 350V060 9999 FEW045 BKN079 OVC086 14/11 Q1011 BLU NOSIG
06:25
V
15 °C 10 km+ 4.600 ft 030° 030° 12 kt METAR EHKD 240425Z AUTO 03012KT 350V060 9999 SCT041 BKN046 BKN080 15/12 Q1011 BLU
05:55
V
15 °C 10 km+ 3.500 ft 020° 020° 11 kt METAR EHKD 240355Z AUTO 02011KT 340V060 9999 FEW015 SCT030 OVC035 15/12 Q1011 BLU
05:25
M
15 °C 10 km+ 2.200 ft 030° 030° 10 kt METAR EHKD 240325Z AUTO 03010KT 360V070 9999 FEW018 BKN022 OVC039 15/13 Q1011 WHT
05:19
V
15 °C 10 km+ 3.900 ft 030° 030° 11 kt METAR EHKD 240319Z AUTO 03011KT 360V070 9999 SCT022 OVC039 15/13 Q1011 WHT
04:55
V
15 °C 10 km+ 3.800 ft 030° 030° 11 kt METAR EHKD 240255Z AUTO 03011KT 360V070 9999 FEW015CB OVC038 15/12 Q1011 BLU
04:25
V
15 °C 10 km+ 3.700 ft 030° 030° 9 kt METAR EHKD 240225Z AUTO 03009KT 350V070 9999 FEW015CB OVC037 15/13 Q1011 BLU
03:55
V
15 °C 10 km+ 3.300 ft 020° 020° 11 kt METAR EHKD 240155Z AUTO 02011KT 350V060 9999 -RADZ FEW015CB BKN033 OVC040 15/13 Q1011 BLU
03:35
M
15 °C 10 km+ 2.500 ft 030° 030° 12 kt METAR EHKD 240135Z AUTO 03012KT 350V050 9999 -DZ FEW015CB BKN025 OVC033 15/13 Q1011 BLU
03:31
M
15 °C 10 km+ 2.400 ft 030° 030° 11 kt METAR EHKD 240131Z AUTO 03011KT 360V060 9999 DZ FEW015CB BKN024 BKN027 OVC031 15/13 Q1011 WHT
03:25
M
15 °C 10 km+ 2.900 ft 030° 030° 10 kt METAR EHKD 240125Z AUTO 03010KT 350V060 9999 -RADZ FEW015CB OVC029 15/13 Q1011 BLU
03:04
M
15 °C 10 km+ 2.900 ft 030° 030° 9 kt METAR EHKD 240104Z AUTO 03009KT 360V080 9999 -RA FEW015CB SCT025 OVC029 15/14 Q1011 BLU
02:55
M
15 °C 9 km 2.000 ft 040° 040° 8 kt METAR EHKD 240055Z AUTO 04008KT 360V080 9000 RA FEW001 FEW015CB BKN020 BKN023 15/14 Q1011 WHT
02:40
M
15 °C 9 km 1.700 ft 040° 040° 7 kt METAR EHKD 240040Z AUTO 04007KT 360V080 9000 -RA FEW015CB BKN017 OVC025 15/14 Q1012 WHT
02:25
I
14 °C 3,4 km 1.100 ft 030° 030° 10 kt METAR EHKD 240025Z AUTO 03010KT 010V080 3400 +RA FEW003 BKN011 BKN013 FEW015CB 14/14 Q1012 YLO
02:19
M
14 °C 6 km 1.800 ft 030° 030° 10 kt METAR EHKD 240019Z AUTO 03010KT 010V080 6000 RA FEW006 SCT010 FEW015CB BKN018 14/14 Q1012 GRN
02:15
M
15 °C 6 km 1.700 ft 030° 030° 10 kt METAR EHKD 240015Z AUTO 03010KT 350V070 6000 RA FEW003 SCT009 FEW015CB BKN017 15/14 Q1012 GRN
02:05
I
14 °C 5 km 600 ft 350° 350° 4 kt METAR EHKD 240005Z AUTO 35004KT 280V070 5000 -SHRA FEW004 SCT005 BKN006 FEW015CB 14/14 Q1012 YLO
01:57
I
14 °C 2,9 km 1.000 ft Var Var 2 kt METAR EHKD 232357Z AUTO VRB02KT 2900 -SHRA FEW006 SCT008 BKN010 FEW015CB 14/14 Q1012 YLO
01:55
I
14 °C 2,9 km 2.900 ft Var Var 2 kt METAR EHKD 232355Z AUTO VRB02KT 2900 SHRA SCT010 SCT014 FEW015CB BKN029 14/14 Q1012 YLO
01:39
I
14 °C 3,2 km 3.800 ft Var Var 1 kt METAR EHKD 232339Z AUTO VRB01KT 3200 RA FEW015CB SCT028 BKN038 OVC046 14/14 Q1012 YLO
01:27
L
14 °C 6 km 400 ft Var Var 1 kt METAR EHKD 232327Z AUTO VRB01KT 6000 -RA SCT003 BKN004 BKN006 FEW015CB 14/14 Q1012 YLO
01:25
L
14 °C 6 km 300 ft Var Var 2 kt METAR EHKD 232325Z AUTO VRB02KT 6000 -RA SCT002 BKN003 FEW015CB 14/14 Q1012 AMB
01:19
L
14 °C 5 km 200 ft 340° 340° 3 kt METAR EHKD 232319Z AUTO 34003KT 300V020 5000 BR BKN002 BKN004 BKN014 FEW015CB 14/14 Q1012 AMB
01:15
I
14 °C 3,2 km 2.000 ft Var Var 3 kt METAR EHKD 232315Z AUTO VRB03KT 3200 BR SCT002 SCT004 FEW015CB OVC020 14/14 Q1012 AMB
01:11
I
14 °C 2,9 km 2.000 ft 150° 150° 2 kt METAR EHKD 232311Z AUTO 15002KT 2900 BR FEW014 FEW015CB BKN020 OVC024 14/14 Q1012 YLO
00:55
I
14 °C 3,7 km 2.200 ft 150° 150° 1 kt METAR EHKD 232255Z AUTO 15001KT 3700 BR FEW002 FEW015CB BKN022 OVC025 14/14 Q1012 GRN
00:43
I
14 °C 3,8 km 1.900 ft Var Var 2 kt METAR EHKD 232243Z AUTO VRB02KT 3800 BR FEW001 FEW015CB BKN019 OVC023 14/14 Q1012 GRN
00:36
L
14 °C 4,3 km 300 ft 180° 180° 3 kt METAR EHKD 232236Z AUTO 18003KT 140V210 4300 BR FEW001 BKN003 OVC022 14/14 Q1012 YLO
00:32
M
14 °C 6 km 2.200 ft 170° 170° 3 kt METAR EHKD 232232Z AUTO 17003KT 130V200 6000 BR FEW001 SCT003 BKN022 14/14 Q1012 YLO
00:28
M
14 °C 7 km 3.900 ft 160° 160° 3 kt METAR EHKD 232228Z AUTO 16003KT 130V190 7000 BR FEW001 SCT026 BKN039 14/14 Q1012 WHT
00:25
V
14 °C 10 km+ 4.000 ft 170° 170° 3 kt METAR EHKD 232225Z AUTO 17003KT 9999 FEW026 BKN040 OVC079 14/14 Q1012 BLU
00:02
V
14 °C 10 km+ 3.900 ft 190° 190° 5 kt METAR EHKD 232202Z AUTO 19005KT 9999 FEW020 BKN039 OVC083 14/14 Q1012 BLU

23 september 2022

Tijd Code Weer Temp. Zicht Plafond Wind METAR/SPECI
23:55
M
14 °C 10 km+ 2.300 ft 190° 190° 6 kt METAR EHKD 232155Z AUTO 19006KT 9999 FEW015CB BKN023 OVC026 14/14 Q1012 WHT
23:43
M
15 °C 10 km+ 2.300 ft 210° 210° 5 kt METAR EHKD 232143Z AUTO 21005KT 9999 FEW015CB BKN023 OVC027 15/14 Q1012 WHT
23:39
M
15 °C 10 km+ 2.700 ft 210° 210° 5 kt METAR EHKD 232139Z AUTO 21005KT 9999 FEW007 FEW015CB SCT023 BKN027 15/14 Q1012 WHT
23:35
M
15 °C 10 km+ 2.600 ft 210° 210° 5 kt METAR EHKD 232135Z AUTO 21005KT 9999 -DZ FEW007 FEW015CB BKN026 BKN043 15/14 Q1012 BLU
23:31
M
15 °C 10 km+ 2.400 ft 210° 210° 5 kt METAR EHKD 232131Z AUTO 21005KT 9999 -DZ FEW007 SCT010 FEW015CB BKN024 15/14 Q1012 GRN
23:25
M
15 °C 10 km+ 1.600 ft 210° 210° 5 kt METAR EHKD 232125Z AUTO 21005KT 9999 DZ FEW009 SCT011 FEW015CB BKN016 15/14 Q1012 GRN
23:03
V
14 °C 9 km 5.400 ft 210° 210° 4 kt METAR EHKD 232103Z AUTO 21004KT 9000 BR SCT011 FEW015CB BKN054 OVC100 14/14 Q1012 GRN
22:55
V
14 °C 10 km+ 6.200 ft 220° 220° 4 kt METAR EHKD 232055Z AUTO 22004KT 9999 -DZ FEW015CB SCT056 BKN062 14/14 Q1012 REDZ BLU
22:27
M
15 °C 5 km 7.900 ft Var Var 2 kt METAR EHKD 232027Z AUTO VRB02KT 5000 -RA FEW009 FEW015CB SCT060 OVC079 15/14 Q1012 WHT
22:15
M
15 °C 5 km 1.000 ft 230° 230° 3 kt METAR EHKD 232015Z AUTO 23003KT 5000 BR FEW008 SCT009 BKN010 FEW015CB 15/14 Q1012 GRN
22:01
M
15 °C 5 km 1.200 ft 220° 220° 4 kt METAR EHKD 232001Z AUTO 22004KT 5000 BR FEW009 BKN012 FEW015CB OVC069 15/14 Q1012 GRN
21:55
I
15 °C 4,6 km 7.100 ft 210° 210° 5 kt METAR EHKD 231955Z AUTO 21005KT 4600 BR FEW015CB SCT065 OVC071 15/14 Q1012 GRN
21:44
M
15 °C 5 km 6.700 ft 190° 190° 5 kt METAR EHKD 231944Z AUTO 19005KT 5000 BR FEW015CB OVC067 15/14 Q1012 WHT
21:33
I
15 °C 4,2 km 6.500 ft 200° 200° 6 kt METAR EHKD 231933Z AUTO 20006KT 4200 BR FEW015CB BKN065 OVC071 15/14 Q1012 GRN
21:25
I
15 °C 3,8 km 6.300 ft 200° 200° 5 kt METAR EHKD 231925Z AUTO 20005KT 170V230 3800 -SHRA FEW009 FEW015CB SCT053 OVC063 15/14 Q1012 GRN
21:18
I
15 °C 3,9 km 2.000 ft 190° 190° 4 kt METAR EHKD 231918Z AUTO 19004KT 160V230 3900 -RA FEW004 FEW015CB SCT016 BKN020 15/14 Q1012 GRN
21:11
M
15 °C 6 km 1.500 ft 180° 180° 2 kt METAR EHKD 231911Z AUTO 18002KT 6000 BR FEW004 BKN015CB OVC019 15/14 Q1012 WHT
21:06
M
15 °C 5 km 1.500 ft Var Var 2 kt METAR EHKD 231906Z AUTO VRB02KT 5000 -DZ FEW009 SCT011 BKN015CB 15/14 Q1012 GRN
21:02
M
15 °C 5 km 1.700 ft 200° 200° 3 kt METAR EHKD 231902Z AUTO 20003KT 170V230 5000 -DZ FEW009 SCT014 FEW015CB BKN017 15/14 Q1012 GRN
20:55
M
15 °C 7 km 1.700 ft 180° 180° 4 kt METAR EHKD 231855Z AUTO 18004KT 7000 -RA FEW013 FEW015CB BKN017 OVC021 15/14 Q1012 WHT
20:25
M
15 °C 7 km 2.700 ft 190° 190° 4 kt METAR EHKD 231825Z AUTO 19004KT 7000 BR FEW015CB BKN027 OVC031 15/14 Q1012 WHT
19:55
M
15 °C 6 km 5.300 ft 180° 180° 5 kt METAR EHKD 231755Z AUTO 18005KT 150V210 6000 BR OVC053 15/14 Q1012 WHT
19:39
M
15 °C 7 km 7.400 ft 180° 180° 5 kt METAR EHKD 231739Z AUTO 18005KT 7000 BR SCT053 SCT064 BKN074 15/14 Q1012 WHT
19:26
V
15 °C 9 km 4.900 ft 170° 170° 6 kt METAR EHKD 231726Z AUTO 17006KT 140V200 9000 BR FEW043 BKN049 OVC055 15/14 Q1012 BLU
19:25
V
15 °C 9 km 4.600 ft 170° 170° 6 kt METAR EHKD 231725Z AUTO 17006KT 9000 BR FEW042 BKN046 BKN051 15/14 Q1012 REDZ BLU TEMPO 3000 SHRA RA FEW008 SCT020CB BKN022
18:55
V
15 °C 10 km+ 3.300 ft 170° 170° 6 kt METAR EHKD 231655Z AUTO 17006KT 9999 SCT028 BKN033 OVC063 15/14 Q1012 BLU TEMPO 3000 SHRA RA FEW008 SCT020CB BKN022
18:25
V
16 °C 10 km+ 5.300 ft 170° 170° 6 kt METAR EHKD 231625Z AUTO 17006KT 9999 FEW025 SCT038 BKN053 16/14 Q1012 BLU TEMPO 3000 SHRA RA FEW008 SCT020CB BKN022
17:55
V
16 °C 10 km+ 5.200 ft 190° 190° 8 kt METAR EHKD 231555Z AUTO 19008KT 9999 FEW015 SCT033 BKN052 16/14 Q1013 BLU TEMPO 3000 SHRA RA FEW008 SCT020CB BKN022
17:40
V
16 °C 10 km+ 6.800 ft 190° 190° 7 kt METAR EHKD 231540Z AUTO 19007KT 9999 FEW013 SCT057 BKN068 16/15 Q1013 BLU TEMPO 3000 SHRA RA FEW008 SCT020CB BKN022
17:34
M
16 °C 10 km+ 2.200 ft 190° 190° 7 kt METAR EHKD 231534Z AUTO 19007KT 9999 SCT013 BKN022 OVC075 16/15 Q1013 GRN TEMPO 3000 SHRA RA FEW008 SCT020CB BKN022
17:25
M
16 °C 10 km+ 1.000 ft 190° 190° 7 kt METAR EHKD 231525Z AUTO 19007KT 160V220 9999 FEW008 SCT009 BKN010 16/15 Q1013 GRN TEMPO 3000 SHRA RA FEW008 SCT020CB BKN022
17:18
V
16 °C 10 km+ 7.500 ft 190° 190° 6 kt METAR EHKD 231518Z AUTO 19006KT 160V220 9999 FEW008 FEW015CB SCT024 OVC075 16/15 Q1013 WHT TEMPO 3000 SHRA RA FEW008 SCT020CB BKN022
16:55
V
16 °C 8 km 10.000 ft 180° 180° 5 kt METAR EHKD 231455Z AUTO 18005KT 8000 BR FEW015CB SCT091 OVC100 16/15 Q1013 BLU TEMPO 3000 SHRA RA FEW008 SCT020CB BKN022
16:42
V
15 °C 9 km 6.900 ft 180° 180° 6 kt METAR EHKD 231442Z AUTO 18006KT 9000 BR FEW015CB BKN069 OVC100 15/14 Q1013 BLU TEMPO 3000 SHRA RA FEW008 SCT020CB BKN022
16:25
M
15 °C 7 km 3.500 ft 180° 180° 6 kt METAR EHKD 231425Z AUTO 18006KT 7000 BR FEW007 FEW015CB BKN035 BKN040 15/14 Q1013 WHT TEMPO 3000 SHRA RA FEW008 SCT020CB BKN022
16:08
I
15 °C 4,5 km 700 ft 200° 200° 7 kt METAR EHKD 231408Z AUTO 20007KT 160V230 4500 -SHRA FEW005 BKN007 BKN008 FEW015CB 15/14 Q1013 GRN TEMPO 3000 SHRA RA FEW008 SCT020CB BKN022
16:04
I
15 °C 5 km 800 ft 190° 190° 8 kt METAR EHKD 231404Z AUTO 19008KT 160V230 5000 -SHRA SCT006 BKN008 FEW015CB BKN026 15/14 Q1013 YLO TEMPO 3000 SHRA RA FEW008 SCT020CB BKN022
15:55
I
15 °C 4 km 4.600 ft 170° 170° 8 kt METAR EHKD 231355Z AUTO 17008KT 140V200 4000 -SHRA FEW005 SCT015CB BKN046 15/14 Q1013 GRN TEMPO 3000 SHRA RA FEW008 SCT020CB BKN022
15:40
M
15 °C 5 km 1.500 ft 180° 180° 7 kt METAR EHKD 231340Z AUTO 18007KT 5000 -RA FEW012 BKN015CB BKN019 15/14 Q1013 WHT TEMPO 3000 SHRA RA FEW008 SCT020CB BKN022
15:25
I
15 °C 4,1 km 1.500 ft 180° 180° 7 kt METAR EHKD 231325Z AUTO 18007KT 4100 -SHRA FEW012 BKN015CB BKN022 15/14 Q1014 RERA REDZ GRN TEMPO 3000 SHRA RA FEW008 SCT020CB BKN022
15:04
M
15 °C 6 km 2.300 ft 180° 180° 7 kt METAR EHKD 231304Z AUTO 18007KT 6000 -RA FEW011 SCT015CB BKN023 BKN042 15/14 Q1014 WHT TEMPO 4000 SHRA RA FEW008 SCT020CB BKN022
14:55
M
16 °C 9 km 1.400 ft 170° 170° 7 kt METAR EHKD 231255Z AUTO 17007KT 150V210 9000 -RA FEW012 BKN014 FEW015CB BKN017 16/14 Q1014 GRN TEMPO 4000 SHRA RA FEW008 SCT020CB BKN022
14:25
V
16 °C 10 km+ 5.600 ft 170° 170° 7 kt METAR EHKD 231225Z AUTO 17007KT 140V200 9999 FEW019 BKN056 OVC062 16/14 Q1014 BLU TEMPO 4000 -RADZ SCT018
13:55
V
16 °C 8 km 5.500 ft 170° 170° 7 kt METAR EHKD 231155Z AUTO 17007KT 140V210 8000 BR OVC055 16/14 Q1014 BLU TEMPO 4000 -RADZ SCT018
13:36
V
15 °C 9 km 4.500 ft 170° 170° 6 kt METAR EHKD 231136Z AUTO 17006KT 9000 BR BKN045 OVC049 15/14 Q1014 BLU TEMPO 4000 -RADZ SCT018
13:25
V
15 °C 9 km 4.000 ft 170° 170° 5 kt METAR EHKD 231125Z AUTO 17005KT 140V210 9000 BR BKN040 OVC044 15/14 Q1014 BLU TEMPO 4000 -RADZ SCT018
13:16
V
15 °C 8 km 4.000 ft 170° 170° 5 kt METAR EHKD 231116Z AUTO 17005KT 140V210 8000 BR OVC040 15/14 Q1014 BLU TEMPO 4000 -RADZ SCT018
13:08
V
15 °C 8 km 3.900 ft 170° 170° 5 kt METAR EHKD 231108Z AUTO 17005KT 8000 -DZ OVC039 15/14 Q1014 BLU TEMPO 4000 -RADZ SCT018
12:55
M
15 °C 6 km 3.800 ft 180° 180° 5 kt METAR EHKD 231055Z AUTO 18005KT 140V200 6000 -DZ OVC038 15/14 Q1014 WHT TEMPO 4000 -RADZ SCT018
Oudere gegevens

Met cookies volgen wij en derde partijen jouw internetgedrag binnen onze site. Als je verdergaat gaan we ervan uit dat je dit goedvindt. Meer info